New London, Missouri
Current Conditions -  °F | °C
As of 5:51 PM on Saturday 22 Nov 2014 (Local Time) from KUIN Reporting Station
Overcast Overcast  
Wind Chill: 55°   Ceiling: 2600
Heat Index: 55°   Visibility: 10mi
Dew Point: 48°   Wind: 14mph
Humidity: 77%   Direction: 180°S
Pressure: 29.86"   Gusts: NA
Location:  39.59°N, 91.4°W
Report Text: KUIN 222351Z AUTO 18012KT 10SM BKN026 OVC049 13/09 A2986 RMK AO2
Loading
Personal Weather Stations






























Interactive Weather Map New forecast layout! Learn more

10-Day Weather Forecast

Advertisements
Track Severe Weather on mobile